createdAt,value
2022-12-14T00:01:42.043Z,-3.90
2022-12-14T00:04:18.189Z,-3.23
2022-12-14T00:06:46.027Z,-3.75
2022-12-14T00:09:13.687Z,-3.92
2022-12-14T00:11:41.373Z,-3.47
2022-12-14T00:14:09.019Z,-3.63
2022-12-14T00:16:37.590Z,-4.50
2022-12-14T00:19:05.636Z,-3.98
2022-12-14T00:21:34.685Z,-3.58
2022-12-14T00:24:02.240Z,-4.16
2022-12-14T00:26:31.952Z,-3.90
2022-12-14T00:29:00.813Z,-4.06
2022-12-14T00:31:28.870Z,-4.25
2022-12-14T00:33:56.440Z,-4.68
2022-12-14T00:36:24.813Z,-4.82
2022-12-14T00:38:53.717Z,-4.82
2022-12-14T00:41:21.243Z,-4.18
2022-12-14T00:43:49.621Z,-4.62
2022-12-14T00:46:18.115Z,-3.91
2022-12-14T00:48:46.055Z,-3.78
2022-12-14T00:51:14.818Z,-3.25
2022-12-14T00:53:42.733Z,-3.18
2022-12-14T00:56:11.686Z,-3.82
2022-12-14T00:58:39.240Z,-3.93
2022-12-14T01:01:08.682Z,-3.76
2022-12-14T01:03:36.401Z,-3.57
2022-12-14T01:06:04.681Z,-4.02
2022-12-14T01:08:35.553Z,-3.79
2022-12-14T01:11:07.281Z,-3.79
2022-12-14T01:13:37.165Z,-3.01
2022-12-14T01:16:05.770Z,-3.20
2022-12-14T01:18:35.612Z,-2.80
2022-12-14T01:21:14.555Z,-2.76
2022-12-14T01:23:43.904Z,-2.91
2022-12-14T01:26:11.846Z,-3.00
2022-12-14T01:28:40.966Z,-2.60
2022-12-14T01:31:10.627Z,-2.27
2022-12-14T01:33:38.375Z,-2.93
2022-12-14T01:36:07.943Z,-2.83
2022-12-14T01:38:35.611Z,-2.69
2022-12-14T01:41:03.432Z,-2.41
2022-12-14T01:43:48.778Z,-2.72
2022-12-14T01:46:22.215Z,-3.56
2022-12-14T01:48:52.855Z,-4.08
2022-12-14T01:51:20.895Z,-4.45
2022-12-14T01:53:49.046Z,-4.26
2022-12-14T01:56:17.589Z,-4.20
2022-12-14T01:58:45.120Z,-4.29
2022-12-14T02:01:14.890Z,-4.39
2022-12-14T02:03:48.113Z,-4.47
2022-12-14T02:06:20.774Z,-3.93
2022-12-14T02:08:52.064Z,-3.81
2022-12-14T02:11:30.240Z,-3.53
2022-12-14T02:13:57.754Z,-3.66
2022-12-14T02:16:26.689Z,-4.23
2022-12-14T02:18:54.569Z,-4.48
2022-12-14T02:21:30.477Z,-4.82
2022-12-14T02:24:29.400Z,-4.88
2022-12-14T02:27:11.702Z,-5.09
2022-12-14T02:30:09.344Z,-4.87
2022-12-14T02:32:54.015Z,-4.08
2022-12-14T02:35:33.779Z,-4.84
2022-12-14T02:38:12.973Z,-4.88
2022-12-14T02:40:51.766Z,-5.12
2022-12-14T02:43:29.785Z,-4.73
2022-12-14T02:46:09.667Z,-5.07
2022-12-14T02:48:41.691Z,-5.00
2022-12-14T02:51:18.365Z,-4.29
2022-12-14T02:53:54.724Z,-4.24
2022-12-14T02:56:28.990Z,-4.38
2022-12-14T02:58:58.665Z,-4.28
2022-12-14T03:01:30.417Z,-4.29
2022-12-14T03:03:58.023Z,-4.76
2022-12-14T03:06:29.463Z,-4.95
2022-12-14T03:09:01.386Z,-4.95
2022-12-14T03:11:35.900Z,-5.03
2022-12-14T03:14:08.995Z,-4.87
2022-12-14T03:16:42.442Z,-4.77
2022-12-14T03:19:16.537Z,-4.70
2022-12-14T03:21:48.806Z,-4.46
2022-12-14T03:24:22.189Z,-4.35
2022-12-14T03:26:55.066Z,-4.28
2022-12-14T03:29:25.293Z,-4.26
2022-12-14T03:31:58.336Z,-3.91
2022-12-14T03:34:30.784Z,-3.78
2022-12-14T03:37:05.554Z,-3.30
2022-12-14T03:39:36.028Z,-2.91
2022-12-14T03:42:11.787Z,-3.62
2022-12-14T03:44:49.590Z,-4.04
2022-12-14T03:47:37.494Z,-4.33
2022-12-14T03:50:11.414Z,-4.43
2022-12-14T03:52:43.359Z,-4.44
2022-12-14T03:55:24.795Z,-4.12
2022-12-14T03:58:10.809Z,-4.07
2022-12-14T04:00:46.486Z,-4.27
2022-12-14T04:03:23.818Z,-4.30
2022-12-14T04:05:59.419Z,-4.07
2022-12-14T04:08:36.173Z,-3.97
2022-12-14T04:11:25.093Z,-3.96
2022-12-14T04:14:17.409Z,-3.94
2022-12-14T04:17:06.735Z,-4.28
2022-12-14T04:19:42.213Z,-4.15
2022-12-14T04:22:13.985Z,-3.98
2022-12-14T04:25:04.412Z,-4.15
2022-12-14T04:27:38.235Z,-4.10
2022-12-14T04:30:07.093Z,-3.57
2022-12-14T04:32:39.054Z,-2.87
2022-12-14T04:35:13.585Z,-2.79
2022-12-14T04:37:46.036Z,-3.39
2022-12-14T04:40:20.153Z,-3.13
2022-12-14T04:42:53.951Z,-3.22
2022-12-14T04:45:26.836Z,-3.09
2022-12-14T04:48:01.311Z,-2.85
2022-12-14T04:50:34.672Z,-2.36
2022-12-14T04:53:09.354Z,-2.08
2022-12-14T04:55:42.893Z,-2.99
2022-12-14T04:58:14.909Z,-2.08
2022-12-14T05:00:59.748Z,-1.87
2022-12-14T05:03:31.705Z,-2.02
2022-12-14T05:06:09.754Z,-2.31
2022-12-14T05:09:06.884Z,-2.16
2022-12-14T05:11:57.465Z,-1.81
2022-12-14T05:14:34.523Z,-1.88
2022-12-14T05:17:08.457Z,-1.96
2022-12-14T05:19:36.980Z,-1.81
2022-12-14T05:22:08.270Z,-1.87
2022-12-14T05:24:36.154Z,-2.61
2022-12-14T05:27:03.670Z,-2.26
2022-12-14T05:29:31.214Z,-2.93
2022-12-14T05:31:58.876Z,-2.97
2022-12-14T05:34:26.397Z,-3.38
2022-12-14T05:36:54.479Z,-3.27
2022-12-14T05:39:23.358Z,-3.35
2022-12-14T05:41:50.936Z,-3.61
2022-12-14T05:44:19.660Z,-3.87
2022-12-14T05:46:47.237Z,-3.69
2022-12-14T05:49:14.820Z,-3.48
2022-12-14T05:51:42.335Z,-3.34
2022-12-14T05:54:09.877Z,-3.08
2022-12-14T05:56:38.744Z,-3.63
2022-12-14T05:59:06.318Z,-3.29
2022-12-14T06:01:33.947Z,-2.99
2022-12-14T06:04:01.574Z,-2.43
2022-12-14T06:06:29.173Z,-2.27
2022-12-14T06:08:56.689Z,-2.76
2022-12-14T06:11:24.876Z,-3.24
2022-12-14T06:13:53.744Z,-2.84
2022-12-14T06:16:23.303Z,-1.95
2022-12-14T06:18:53.178Z,-2.45
2022-12-14T06:21:23.550Z,-2.72
2022-12-14T06:23:51.090Z,-2.78
2022-12-14T06:26:19.542Z,-2.12
2022-12-14T06:28:47.666Z,-2.57
2022-12-14T06:31:18.860Z,-2.93
2022-12-14T06:33:46.777Z,-2.92
2022-12-14T06:36:18.826Z,-2.85
2022-12-14T06:38:46.428Z,-2.94
2022-12-14T06:41:14.119Z,-2.79
2022-12-14T06:43:41.658Z,-2.60
2022-12-14T06:46:14.775Z,-2.73
2022-12-14T06:48:44.701Z,-2.32
2022-12-14T06:51:12.481Z,-2.11
2022-12-14T06:53:39.983Z,-1.86
2022-12-14T06:56:09.312Z,-1.76
2022-12-14T06:58:37.018Z,-1.91
2022-12-14T07:01:05.553Z,-1.89
2022-12-14T07:03:33.176Z,-2.06
2022-12-14T07:06:03.508Z,-2.64
2022-12-14T07:08:32.657Z,-2.76
2022-12-14T07:11:02.765Z,-2.90
2022-12-14T07:13:30.803Z,-2.89
2022-12-14T07:16:00.392Z,-2.89
2022-12-14T07:18:28.737Z,-3.00
2022-12-14T07:20:58.242Z,-2.77
2022-12-14T07:23:28.463Z,-2.54
2022-12-14T07:26:02.407Z,-2.78
2022-12-14T07:28:30.223Z,-2.37
2022-12-14T07:30:58.795Z,-1.72
2022-12-14T07:33:29.721Z,-1.88
2022-12-14T07:36:03.746Z,-1.28
2022-12-14T07:38:33.442Z,-1.63
2022-12-14T07:41:06.187Z,-1.67
2022-12-14T07:43:33.979Z,-1.57
2022-12-14T07:46:03.086Z,-1.06
2022-12-14T07:48:31.627Z,-1.02
2022-12-14T07:51:03.781Z,-1.71
2022-12-14T07:53:32.986Z,-1.58
2022-12-14T07:56:06.451Z,-1.44
2022-12-14T07:58:35.046Z,-1.35
2022-12-14T08:01:11.449Z,-0.99
2022-12-14T08:03:40.545Z,-1.23
2022-12-14T08:06:09.496Z,-1.66
2022-12-14T08:08:39.117Z,-1.45
2022-12-14T08:11:07.831Z,-1.70
2022-12-14T08:13:35.702Z,-1.53
2022-12-14T08:16:04.601Z,-1.51
2022-12-14T08:18:33.186Z,-1.63
2022-12-14T08:21:01.434Z,-1.56
2022-12-14T08:23:29.669Z,-1.50
2022-12-14T08:26:00.599Z,-0.91
2022-12-14T08:28:29.994Z,-0.60
2022-12-14T08:30:58.251Z,-1.24
2022-12-14T08:33:25.844Z,-1.15
2022-12-14T08:35:53.342Z,-0.54
2022-12-14T08:38:20.854Z,-0.92
2022-12-14T08:40:48.398Z,-1.37
2022-12-14T08:43:25.468Z,-1.65
2022-12-14T08:45:55.484Z,-0.82
2022-12-14T08:48:23.201Z,-0.91
2022-12-14T08:50:50.723Z,-0.56
2022-12-14T08:53:18.482Z,-0.22
2022-12-14T08:55:46.167Z,-0.43
2022-12-14T08:58:14.199Z,-0.37
2022-12-14T09:00:43.305Z,-0.29
2022-12-14T09:03:11.753Z,-0.73
2022-12-14T09:05:39.530Z,-0.63
2022-12-14T09:08:07.189Z,-0.64
2022-12-14T09:10:34.768Z,-0.66
2022-12-14T09:13:02.304Z,-0.57
2022-12-14T09:15:30.502Z,-0.41
2022-12-14T09:17:59.357Z,-0.41
2022-12-14T09:20:26.904Z,-0.66
2022-12-14T09:22:54.801Z,-0.17
2022-12-14T09:25:22.328Z,0.11
2022-12-14T09:27:50.921Z,-0.39
2022-12-14T09:30:24.753Z,-0.50
2022-12-14T09:32:54.039Z,-0.44
2022-12-14T09:35:23.060Z,-0.59
2022-12-14T09:37:50.595Z,-0.54
2022-12-14T09:40:18.386Z,-0.68
2022-12-14T09:42:54.593Z,-0.72
2022-12-14T09:45:26.354Z,-0.64
2022-12-14T09:48:01.692Z,-0.96
2022-12-14T09:50:31.161Z,-0.80
2022-12-14T09:53:02.431Z,-0.77
2022-12-14T09:55:34.026Z,-0.80
2022-12-14T09:58:07.268Z,-0.38
2022-12-14T10:00:40.712Z,-0.60
2022-12-14T10:03:22.511Z,0.04
2022-12-14T10:06:05.720Z,0.49
2022-12-14T10:08:37.522Z,0.19
2022-12-14T10:11:11.409Z,0.32
2022-12-14T10:13:50.631Z,0.63
2022-12-14T10:16:26.983Z,0.31
2022-12-14T10:19:13.399Z,0.30
2022-12-14T10:21:50.158Z,-0.16
2022-12-14T10:24:23.107Z,-0.92
2022-12-14T10:26:52.781Z,-0.56
2022-12-14T10:29:30.425Z,-0.28
2022-12-14T10:32:05.204Z,-0.32
2022-12-14T10:34:34.686Z,-0.01
2022-12-14T10:37:23.920Z,0.30
2022-12-14T10:40:12.693Z,0.47
2022-12-14T10:42:51.459Z,0.96
2022-12-14T10:45:40.177Z,0.55
2022-12-14T10:48:30.570Z,-0.17
2022-12-14T10:51:02.673Z,-0.69
2022-12-14T10:53:40.881Z,-0.52
2022-12-14T10:56:15.419Z,-0.22
2022-12-14T10:58:43.034Z,0.14
2022-12-14T11:01:15.481Z,-0.66
2022-12-14T11:03:44.831Z,-0.89
2022-12-14T11:06:17.866Z,-0.57
2022-12-14T11:08:49.077Z,-0.40
2022-12-14T11:11:19.684Z,-0.73
2022-12-14T11:13:52.692Z,0.14
2022-12-14T11:16:33.651Z,0.45
2022-12-14T11:19:05.489Z,-0.25
2022-12-14T11:21:35.036Z,0.03
2022-12-14T11:24:05.341Z,-0.34
2022-12-14T11:26:36.423Z,-0.64
2022-12-14T11:29:06.426Z,-0.64
2022-12-14T11:31:38.284Z,-0.38
2022-12-14T11:34:07.310Z,-0.46
2022-12-14T11:36:37.098Z,-1.00
2022-12-14T11:39:19.486Z,-1.07
2022-12-14T11:41:49.638Z,-1.16
2022-12-14T11:44:26.104Z,-0.83
2022-12-14T11:46:56.430Z,-0.33
2022-12-14T11:49:28.471Z,-0.80
2022-12-14T11:51:58.860Z,-0.95
2022-12-14T11:54:28.603Z,-0.83
2022-12-14T11:57:02.704Z,-0.95
2022-12-14T11:59:37.592Z,-0.65
2022-12-14T12:02:16.854Z,-0.73
2022-12-14T12:04:47.616Z,-0.54
2022-12-14T12:07:25.424Z,-0.04
2022-12-14T12:09:55.379Z,0.15
2022-12-14T12:12:24.235Z,0.00
2022-12-14T12:14:56.788Z,-0.15
2022-12-14T12:17:39.371Z,-0.64
2022-12-14T12:20:26.829Z,-0.90
2022-12-14T12:23:00.367Z,-1.02
2022-12-14T12:25:37.406Z,-0.93
2022-12-14T12:28:15.635Z,-1.19
2022-12-14T12:30:47.373Z,-1.47
2022-12-14T12:33:27.476Z,-1.05
2022-12-14T12:35:56.821Z,-1.17
2022-12-14T12:38:41.814Z,-0.67
2022-12-14T12:41:18.860Z,-0.47
2022-12-14T12:43:53.569Z,-0.71
2022-12-14T12:46:26.685Z,-0.80
2022-12-14T12:49:01.963Z,-0.44
2022-12-14T12:51:32.805Z,-0.06
2022-12-14T12:54:06.190Z,0.72
2022-12-14T12:56:43.263Z,0.87
2022-12-14T12:59:17.780Z,0.48
2022-12-14T13:01:48.035Z,0.29
2022-12-14T13:04:25.451Z,0.32
2022-12-14T13:06:57.826Z,0.28
2022-12-14T13:09:36.227Z,-0.33
2022-12-14T13:12:08.218Z,-0.38
2022-12-14T13:14:41.466Z,-0.41
2022-12-14T13:17:24.325Z,-0.06
2022-12-14T13:19:54.529Z,0.54
2022-12-14T13:22:27.766Z,0.29
2022-12-14T13:24:59.623Z,0.01
2022-12-14T13:27:45.376Z,0.82
2022-12-14T13:30:26.349Z,0.66
2022-12-14T13:33:13.923Z,0.82
2022-12-14T13:36:00.636Z,0.90
2022-12-14T13:38:55.861Z,0.50
2022-12-14T13:41:33.544Z,0.37
2022-12-14T13:44:37.401Z,-0.15
2022-12-14T13:47:16.326Z,0.03
2022-12-14T13:50:18.571Z,0.15
2022-12-14T13:52:43.456Z,0.34
2022-12-14T13:55:28.148Z,0.61
2022-12-14T13:58:07.822Z,0.35
2022-12-14T14:00:58.274Z,-0.46
2022-12-14T14:03:47.769Z,-0.23
2022-12-14T14:06:37.772Z,-0.43
2022-12-14T14:09:42.752Z,-0.15
2022-12-14T14:12:37.190Z,0.01
2022-12-14T14:16:11.295Z,-0.39
2022-12-14T14:18:47.064Z,-0.01
2022-12-14T14:21:36.283Z,0.22
2022-12-14T14:24:22.032Z,0.53
2022-12-14T14:27:00.402Z,0.54
2022-12-14T14:29:29.111Z,0.28
2022-12-14T14:32:01.600Z,0.32
2022-12-14T14:34:46.197Z,0.58
2022-12-14T14:37:16.440Z,0.93
2022-12-14T14:39:57.773Z,0.85
2022-12-14T14:42:31.775Z,0.38
2022-12-14T14:45:02.619Z,0.32
2022-12-14T14:47:34.576Z,0.46
2022-12-14T14:50:08.356Z,0.67
2022-12-14T14:52:59.692Z,0.80
2022-12-14T14:56:17.491Z,0.86
2022-12-14T14:58:45.063Z,0.89
2022-12-14T15:01:24.858Z,0.98
2022-12-14T15:03:58.743Z,1.06
2022-12-14T15:06:30.419Z,0.99
2022-12-14T15:09:03.320Z,1.15
2022-12-14T15:11:41.664Z,1.27
2022-12-14T15:14:22.608Z,1.31
2022-12-14T15:16:50.163Z,1.30
2022-12-14T15:19:26.423Z,1.22
2022-12-14T15:21:58.394Z,0.76
2022-12-14T15:24:27.282Z,1.00
2022-12-14T15:26:55.110Z,0.99
2022-12-14T15:29:28.261Z,0.74
2022-12-14T15:32:00.153Z,0.59
2022-12-14T15:34:28.500Z,0.30
2022-12-14T15:36:57.744Z,-0.13
2022-12-14T15:39:39.877Z,-0.87
2022-12-14T15:42:13.206Z,-0.34
2022-12-14T15:44:43.811Z,-0.33
2022-12-14T15:47:26.528Z,0.38
2022-12-14T15:49:59.758Z,0.62
2022-12-14T15:52:31.664Z,0.74
2022-12-14T15:55:00.525Z,0.69
2022-12-14T15:57:28.233Z,-0.04
2022-12-14T15:59:58.579Z,-0.39
2022-12-14T16:02:31.587Z,-0.09
2022-12-14T16:05:02.647Z,-0.32
2022-12-14T16:07:39.689Z,-0.24
2022-12-14T16:10:15.713Z,-1.20
2022-12-14T16:12:46.112Z,-1.22
2022-12-14T16:15:19.010Z,-1.06
2022-12-14T16:17:47.355Z,-0.80
2022-12-14T16:20:22.341Z,-0.51
2022-12-14T16:23:03.283Z,0.18
2022-12-14T16:25:32.198Z,0.57
2022-12-14T16:28:20.924Z,0.82
2022-12-14T16:30:59.316Z,1.09
2022-12-14T16:33:29.388Z,1.34
2022-12-14T16:36:03.653Z,1.57
2022-12-14T16:38:37.172Z,1.69
2022-12-14T16:41:05.557Z,1.75
2022-12-14T16:43:35.859Z,1.79
2022-12-14T16:46:11.117Z,1.67
2022-12-14T16:48:41.642Z,1.49
2022-12-14T16:54:27.417Z,1.42
2022-12-14T16:56:59.473Z,1.69
2022-12-14T16:59:31.274Z,1.73
2022-12-14T17:01:59.095Z,1.78
2022-12-14T17:04:34.977Z,1.91
2022-12-14T17:07:03.233Z,1.91
2022-12-14T17:09:35.245Z,1.94
2022-12-14T17:12:11.982Z,1.90
2022-12-14T17:14:43.512Z,1.90
2022-12-14T17:17:19.857Z,2.01
2022-12-14T17:19:47.460Z,1.92
2022-12-14T17:22:19.132Z,1.68
2022-12-14T17:24:48.015Z,1.03
2022-12-14T17:27:17.498Z,0.42
2022-12-14T17:29:45.743Z,-0.12
2022-12-14T17:32:15.164Z,-0.25
2022-12-14T17:34:45.238Z,0.29
2022-12-14T17:37:16.491Z,0.59
2022-12-14T17:40:00.466Z,0.31
2022-12-14T17:42:29.437Z,-0.13
2022-12-14T17:44:59.895Z,-0.23
2022-12-14T17:47:27.717Z,-0.43
2022-12-14T17:49:55.461Z,0.05
2022-12-14T17:52:27.735Z,0.69
2022-12-14T17:54:55.385Z,1.15
2022-12-14T17:57:24.629Z,1.44
2022-12-14T18:00:14.135Z,1.67
2022-12-14T18:02:42.849Z,1.83
2022-12-14T18:05:19.465Z,1.85
2022-12-14T18:07:47.099Z,1.86
2022-12-14T18:10:18.362Z,1.87
2022-12-14T18:12:46.020Z,1.39
2022-12-14T18:15:20.357Z,1.33
2022-12-14T18:17:49.479Z,1.63
2022-12-14T18:20:17.630Z,1.82
2022-12-14T18:22:49.549Z,1.93
2022-12-14T18:25:30.176Z,2.01
2022-12-14T18:27:57.759Z,2.06
2022-12-14T18:30:27.224Z,2.05
2022-12-14T18:32:55.884Z,1.93
2022-12-14T18:35:25.733Z,2.07
2022-12-14T18:37:53.762Z,1.90
2022-12-14T18:40:24.404Z,1.95
2022-12-14T18:42:52.610Z,2.04
2022-12-14T18:45:22.194Z,1.53
2022-12-14T18:47:51.314Z,0.92
2022-12-14T18:50:19.637Z,-0.04
2022-12-14T18:52:47.445Z,-0.04
2022-12-14T18:55:17.977Z,0.35
2022-12-14T18:57:46.493Z,0.73
2022-12-14T19:00:16.702Z,1.19
2022-12-14T19:02:46.748Z,1.13
2022-12-14T19:05:25.593Z,1.01
2022-12-14T19:07:54.340Z,1.33
2022-12-14T19:10:24.657Z,1.16
2022-12-14T19:12:52.776Z,0.08
2022-12-14T19:15:22.620Z,0.37
2022-12-14T19:17:50.481Z,0.69
2022-12-14T19:20:20.449Z,1.23
2022-12-14T19:22:49.466Z,1.37
2022-12-14T19:25:17.820Z,1.20
2022-12-14T19:28:25.708Z,1.18
2022-12-14T19:30:34.615Z,1.14
2022-12-14T19:33:02.246Z,1.31
2022-12-14T19:35:31.743Z,1.31
2022-12-14T19:37:59.332Z,1.44
2022-12-14T19:40:27.200Z,1.67
2022-12-14T19:42:54.750Z,1.59
2022-12-14T19:45:22.288Z,1.75
2022-12-14T19:47:49.820Z,1.82
2022-12-14T19:50:17.501Z,1.87
2022-12-14T19:52:46.385Z,1.87
2022-12-14T19:55:14.012Z,1.23
2022-12-14T19:57:42.259Z,0.49
2022-12-14T20:00:11.500Z,0.92
2022-12-14T20:02:39.761Z,1.05
2022-12-14T20:05:08.452Z,1.02
2022-12-14T20:07:41.867Z,1.32
2022-12-14T20:10:12.517Z,1.60
2022-12-14T20:12:40.172Z,1.76
2022-12-14T20:15:08.395Z,1.62
2022-12-14T20:17:35.951Z,1.65
2022-12-14T20:20:03.581Z,1.50
2022-12-14T20:22:31.114Z,1.15
2022-12-14T20:24:58.652Z,1.06
2022-12-14T20:27:27.535Z,0.86
2022-12-14T20:29:55.059Z,0.91
2022-12-14T20:32:22.606Z,1.35
2022-12-14T20:34:50.162Z,1.55
2022-12-14T20:37:17.699Z,1.67
2022-12-14T20:39:45.229Z,1.55
2022-12-14T20:42:12.770Z,1.15
2022-12-14T20:44:41.628Z,1.31
2022-12-14T20:47:09.234Z,1.13
2022-12-14T20:49:38.754Z,1.09
2022-12-14T20:52:06.452Z,0.47
2022-12-14T20:54:34.175Z,-0.30
2022-12-14T20:57:01.725Z,-0.16
2022-12-14T20:59:30.005Z,-0.50
2022-12-14T21:01:59.122Z,-0.92
2022-12-14T21:04:26.742Z,-0.11
2022-12-14T21:06:54.314Z,0.16
2022-12-14T21:09:21.876Z,-0.14
2022-12-14T21:12:08.446Z,-0.50
2022-12-14T21:14:37.819Z,-0.30
2022-12-14T21:17:06.939Z,-0.82
2022-12-14T21:19:36.155Z,-0.72
2022-12-14T21:22:04.046Z,-0.54
2022-12-14T21:25:00.908Z,-1.00
2022-12-14T21:27:21.402Z,-0.49
2022-12-14T21:29:49.689Z,-0.23
2022-12-14T21:32:19.616Z,-0.52
2022-12-14T21:34:48.075Z,-0.30
2022-12-14T21:37:15.664Z,-1.32
2022-12-14T21:39:46.309Z,-1.91
2022-12-14T21:42:15.357Z,-1.34
2022-12-14T21:44:44.558Z,-1.40
2022-12-14T21:47:14.071Z,-1.17
2022-12-14T21:49:44.217Z,-0.78
2022-12-14T21:52:14.572Z,-0.58
2022-12-14T21:54:42.765Z,-1.15
2022-12-14T21:57:31.815Z,-0.67
2022-12-14T21:59:59.366Z,-1.64
2022-12-14T22:02:27.079Z,-1.92
2022-12-14T22:04:56.854Z,-2.51
2022-12-14T22:07:26.615Z,-2.43
2022-12-14T22:09:54.156Z,-1.96
2022-12-14T22:12:21.687Z,-1.96
2022-12-14T22:14:49.803Z,-2.04
2022-12-14T22:17:17.620Z,-2.16
2022-12-14T22:19:45.204Z,-2.19
2022-12-14T22:22:16.274Z,-2.00
2022-12-14T22:24:44.555Z,-1.70
2022-12-14T22:27:12.969Z,-1.75
2022-12-14T22:29:40.828Z,-1.65
2022-12-14T22:32:08.758Z,-1.53
2022-12-14T22:34:36.724Z,-1.24
2022-12-14T22:37:04.332Z,-1.47
2022-12-14T22:39:33.180Z,-1.53
2022-12-14T22:42:00.924Z,-1.25
2022-12-14T22:44:28.568Z,-0.99
2022-12-14T22:46:56.091Z,-0.64
2022-12-14T22:49:25.122Z,-0.44
2022-12-14T22:51:52.670Z,-1.16
2022-12-14T22:54:23.708Z,-1.90
2022-12-14T22:56:57.738Z,-1.89
2022-12-14T22:59:30.257Z,-1.91
2022-12-14T23:01:59.335Z,-1.58
2022-12-14T23:04:27.114Z,-1.40
2022-12-14T23:06:55.764Z,-1.29
2022-12-14T23:09:41.211Z,-1.06
2022-12-14T23:12:27.794Z,-0.76
2022-12-14T23:15:13.198Z,-0.38
2022-12-14T23:17:58.515Z,-1.01
2022-12-14T23:20:43.892Z,-1.40
2022-12-14T23:23:29.633Z,-1.69
2022-12-14T23:26:14.979Z,-2.16
2022-12-14T23:29:01.628Z,-2.44
2022-12-14T23:31:47.028Z,-2.51
2022-12-14T23:34:32.342Z,-2.58
2022-12-14T23:37:20.475Z,-2.78
2022-12-14T23:40:05.981Z,-2.65
2022-12-14T23:42:51.446Z,-2.58
2022-12-14T23:45:38.164Z,-2.47
2022-12-14T23:48:23.388Z,-2.30
2022-12-14T23:51:08.780Z,-2.47
2022-12-14T23:53:54.109Z,-2.52
2022-12-14T23:56:39.380Z,-2.24
2022-12-14T23:59:29.753Z,-2.00
